47分钟前
罗盘
风向 的 风向 240° Stuttgart Airport 7/25
风: 9 千吨, 3 beaufort
0 500 1.500 3.000 5.000 8.000 10.000
BKN 1.400 ft
BKN 4.200 ft
METAR ETHL 220520Z 24009KT 9999 BKN014 BKN042 M00/M03 Q1030 GRN

METAR定义 | 嵌入

24小时趋势

航班类别VFRLIFR
温度1 °C0 °C
风速1 千吨0 千吨
能见度1 公里0 米

更多历史数据

下载我们的安卓应用程序

从你的主屏幕上轻松地访问你的航空天气。
只需一次付费,您就可以获得无广告的体验。

您会帮助我们保持Metar-Taf.com正常运行吗?
您的贡献有助于网站的进一步开发并支付费用。

没有更多广告

您是捐款5美元还是更多?然后,我们将永远不会再向您展示广告,这是我们永恒的感谢!
捐赠前先登录

METAR Stuttgart Airport

Stuttgart Airport是Stuttgart,德国中的大型机场。 机场有{a,plural,=1{一条跑道} other{#跑道}}: 7/25

Stuttgart Airport最近未发布观察结果。相反,我们向您显示73 km的报告Laupheim Air Base。 该报告是针对2022年1月22日 06:20, 当地时间进行的。

机场观察

风来自西南西 (240°)方向,速度为9 千吨。

可见度为10 公里 或者更多。

有碎云在1.400 ft的高度 和 碎云在4.200 ft的高度。 破损或更高的上限为1.400 ft。

温度为0 °C,阵风为-7 °C。 露点为-3 °C,相对湿度为80%。 海平面上的气压为1030 压力 (QNH)。

白天

今天,太阳从08:04升起,在17:04降落。 这适用于Stuttgart Airport,世界夏令时可能有所不同。 当地时间与世界标准时间之间的时差为+1 小时。 当前,没有夏令时有效。

公司介绍

在这个机场,你可以找到飞行学校。 本场上唯一已知的公司是Flugbetrieb Aero Beta。

体会

到Vliegles.nl去找飞行课程,跳伞和其他飞行体验。 浏览页面,了解Stuttgart Airport附近所有可用的活动。 你也可以使用搜索功能来寻找你所在地附近的特定飞行课程、跳伞或其他飞行体验。

您是否要在网站上Stuttgart Airport飞行的天气? 阅读更多   自由!